Terminal Aerodrome Forecast
Issued by NWS

Home | Current Version | Previous Version | Text Only | Print | Product List | Glossary On
Versions: 1 2 3 4 5 6 7 8 9 10 11 12 13 14
000
FTUS41 KGYX 010500
TAFPSM
TAF
KPSM 010526Z 0106/0206 VRB03KT 6SM BR FEW002 SCT120
     FM011200 16005KT P6SM SCT250
     FM011700 15009KT P6SM SCT045 SCT080
     FM020000 VRB03KT P6SM SCT120 BKN200=

USA.gov is the U.S. government's official web portal to all federal, state and local government web resources and services.